Observations for PANTELLERIA IT-AFB, Italy (LICG)

LICG 091755Z 27019G31KT 9999 SCT008 SCT015 15/13 Q1021  
LICG 091755Z 27019G31KT 9999 SCT008 SCT015 15/13 Q1021 RMK BKN VIS MIN 9999 WIND THR08 25017G42KT WIND THR21 29025KT BLU
LICG 091655Z 28018G28KT 9999 FEW010 SCT015 15/13 Q1021  
LICG 091655Z 28018G28KT 9999 FEW010 SCT015 15/13 Q1021 RMK BKN VIS MIN 9999 WIND THR08 25015G28KT WIND THR21 30018KT BLU
LICG 091555Z 29021G31KT 9999 SCT010 15/13 Q1021 
LICG 091555Z 29021G31KT 9999 SCT010 15/13 Q1021 RMK SCT VIS MIN 9999 WIND THR0827016G32KT WIND THR21 31018KT BLU
LICG 091455Z 29019G29KT 9999 SCT010 15/13 Q1021 
LICG 091455Z 29019G29KT 9999 SCT010 15/13 Q1021 RMK SCT VIS MIN 9999 WIND THR0827018G35KT WIND THR21 31016KT BLU
LICG 091355Z 29019G32KT 9999 SCT010 15/13 Q1021 
LICG 091355Z 29019G32KT 9999 SCT010 15/13 Q1021 RMK SCT VIS MIN 9999 WIND THR0829020G36KT WIND THR21 32016G26KT BLU
LICG 091255Z 29021G34KT 9999 FEW010 SCT015 15/13 Q1021  
LICG 091255Z 29021G34KT 9999 FEW010 SCT015 15/13 Q1021 RMK BKN VIS MIN 9999 WIND THR08 28018G41KT WIND THR21 32020KT BLU
LICG 091155Z 29018G31KT 9999 SCT015 SCT020 15/13 Q1021  
LICG 091155Z 29018G31KT 9999 SCT015 SCT020 15/13 Q1021 RMK BKN VIS MIN 9999 WIND THR08 27019G36KT WIND THR21 33017KT BLU
LICG 091055Z 31020G31KT 9999 FEW015 SCT023 15/13 Q1022  
LICG 091055Z 31020G31KT 9999 FEW015 SCT023 15/13 Q1022 RMK SCT VIS MIN 9999 WIND THR08 28021G36KT WIND THR21 34017KT BLU
LICG 090955Z 30018G28KT 9999 SCT015 SCT023 15/13 Q1023  
LICG 090955Z 30018G28KT 9999 SCT015 SCT023 15/13 Q1023 RMK BKN VIS MIN 9999 WIND THR08 27016G37KT WIND THR21 33015KT BLU
LICG 090855Z 31017G29KT 9999 SCT020 SCT030 15/13 Q1022  
LICG 090855Z 31017G29KT 9999 SCT020 SCT030 15/13 Q1022 RMK BKN VIS MIN 9999 WIND THR08 28018G36KT WIND THR21 34017KT BLU
LICG 090755Z 32019G29KT 9999 FEW020 SCT030 14/12 Q1022  
LICG 090755Z 32019G29KT 9999 FEW020 SCT030 14/12 Q1022 RMK BKN VIS MIN 9999 WIND THR08 28015G30KT WIND THR21 35015KT BLU
LICG 090655Z 32019G30KT 9999 FEW017 SCT025 14/12 Q1022  
LICG 090655Z 32019G30KT 9999 FEW017 SCT025 14/12 Q1022 RMK BKN VIS MIN 9999 WIND THR08 29021G37KT WIND THR21 33015KT BLU
LICG 090555Z 32015G25KT 9999 SCT017 14/11 Q1021 
LICG 090555Z 32015G25KT 9999 SCT017 14/11 Q1021 RMK BKN SCT060 VIS MIN 9999 WIND THR08 29015G30KT WIND THR21 36015KT BLU